createdAt,value
2023-03-20T00:00:54.350Z,29.43
2023-03-20T00:03:57.985Z,35.43
2023-03-20T00:07:01.546Z,33.83
2023-03-20T00:10:06.876Z,32.20
2023-03-20T00:13:15.824Z,30.30
2023-03-20T00:16:18.853Z,30.63
2023-03-20T00:19:24.184Z,32.53
2023-03-20T00:22:29.342Z,34.60
2023-03-20T00:25:34.189Z,34.90
2023-03-20T00:28:40.941Z,32.83
2023-03-20T00:31:44.829Z,33.20
2023-03-20T00:34:47.858Z,28.43
2023-03-20T00:37:51.782Z,32.67
2023-03-20T00:40:56.100Z,28.27
2023-03-20T00:44:01.931Z,34.13
2023-03-20T00:47:11.404Z,32.97
2023-03-20T00:50:20.648Z,28.90
2023-03-20T00:53:23.591Z,30.70
2023-03-20T00:56:33.618Z,32.07
2023-03-20T00:59:40.053Z,33.17
2023-03-20T01:02:43.154Z,30.13
2023-03-20T01:05:46.726Z,32.87
2023-03-20T01:08:49.687Z,28.97
2023-03-20T01:11:54.228Z,30.97
2023-03-20T01:14:58.885Z,30.30
2023-03-20T01:18:01.859Z,31.10
2023-03-20T01:21:05.172Z,29.90
2023-03-20T01:24:08.711Z,32.23
2023-03-20T01:27:15.918Z,31.50
2023-03-20T01:30:22.626Z,31.23
2023-03-20T01:33:26.537Z,29.87
2023-03-20T01:36:29.662Z,27.20
2023-03-20T01:39:35.898Z,28.40
2023-03-20T01:42:40.282Z,30.53
2023-03-20T01:45:50.785Z,29.70
2023-03-20T01:49:05.667Z,29.47
2023-03-20T01:52:08.617Z,29.47
2023-03-20T01:55:12.044Z,31.93
2023-03-20T01:58:22.231Z,32.73
2023-03-20T02:01:27.599Z,27.17
2023-03-20T02:04:35.020Z,28.33
2023-03-20T02:07:40.290Z,31.03
2023-03-20T02:10:45.829Z,32.50
2023-03-20T02:13:52.544Z,27.00
2023-03-20T02:16:55.903Z,32.43
2023-03-20T02:20:08.011Z,31.67
2023-03-20T02:23:47.688Z,28.07
2023-03-20T02:27:03.420Z,30.77
2023-03-20T02:30:49.188Z,29.17
2023-03-20T02:34:20.461Z,28.33
2023-03-20T02:37:52.109Z,29.27
2023-03-20T02:41:02.109Z,32.10
2023-03-20T02:44:10.706Z,26.93
2023-03-20T02:47:20.266Z,27.60
2023-03-20T02:50:33.102Z,21.83
2023-03-20T02:53:44.381Z,20.67
2023-03-20T02:56:54.974Z,23.10
2023-03-20T03:00:01.756Z,15.83
2023-03-20T03:03:10.991Z,16.33
2023-03-20T03:06:21.459Z,13.87
2023-03-20T03:09:29.571Z,15.80
2023-03-20T03:12:36.761Z,12.20
2023-03-20T03:15:42.142Z,12.53
2023-03-20T03:18:46.951Z,12.37
2023-03-20T03:21:50.545Z,10.77
2023-03-20T03:24:56.117Z,10.33
2023-03-20T03:28:05.300Z,11.13
2023-03-20T03:31:10.864Z,10.00
2023-03-20T03:34:17.693Z,8.97
2023-03-20T03:37:39.951Z,11.57
2023-03-20T03:40:47.441Z,10.70
2023-03-20T03:43:56.721Z,9.93
2023-03-20T03:47:05.335Z,10.90
2023-03-20T03:50:12.814Z,11.10
2023-03-20T03:53:19.721Z,10.90
2023-03-20T03:56:27.088Z,9.20
2023-03-20T03:59:35.412Z,7.83
2023-03-20T04:02:38.780Z,8.40
2023-03-20T04:05:44.693Z,7.73
2023-03-20T04:08:47.632Z,9.53
2023-03-20T04:11:53.890Z,7.23
2023-03-20T04:14:56.965Z,7.80
2023-03-20T04:18:00.054Z,8.07
2023-03-20T04:21:03.221Z,9.33
2023-03-20T04:24:06.795Z,7.47
2023-03-20T04:27:11.411Z,8.83
2023-03-20T04:30:14.663Z,7.03
2023-03-20T04:33:17.659Z,8.43
2023-03-20T04:36:20.876Z,8.30
2023-03-20T04:39:24.015Z,8.63
2023-03-20T04:42:28.352Z,10.43
2023-03-20T04:45:31.363Z,9.70
2023-03-20T04:48:34.327Z,8.83
2023-03-20T04:51:37.294Z,10.57
2023-03-20T04:54:40.273Z,8.23
2023-03-20T04:57:44.550Z,8.70
2023-03-20T05:00:48.081Z,9.43
2023-03-20T05:03:52.017Z,10.43
2023-03-20T05:06:55.287Z,7.90
2023-03-20T05:09:58.216Z,9.53
2023-03-20T05:13:02.491Z,7.90
2023-03-20T05:16:05.834Z,7.77
2023-03-20T05:19:08.789Z,6.80
2023-03-20T05:22:11.858Z,9.00
2023-03-20T05:25:14.900Z,7.90
2023-03-20T05:28:19.230Z,7.40
2023-03-20T05:31:22.220Z,7.33
2023-03-20T05:34:25.566Z,5.10
2023-03-20T05:37:28.561Z,6.43
2023-03-20T05:40:31.617Z,6.43
2023-03-20T05:43:36.237Z,8.10
2023-03-20T05:46:39.214Z,9.83
2023-03-20T05:49:42.161Z,11.87
2023-03-20T05:52:47.820Z,10.37
2023-03-20T05:55:50.750Z,13.87
2023-03-20T05:58:55.035Z,12.10
2023-03-20T06:01:57.973Z,13.17
2023-03-20T06:05:01.170Z,11.00
2023-03-20T06:08:05.088Z,11.80
2023-03-20T06:11:08.320Z,12.50
2023-03-20T06:14:12.669Z,11.47
2023-03-20T06:17:15.790Z,9.13
2023-03-20T06:20:19.177Z,8.00
2023-03-20T06:23:22.753Z,7.73
2023-03-20T06:26:26.044Z,9.40
2023-03-20T06:29:30.520Z,7.60
2023-03-20T06:32:33.766Z,8.53
2023-03-20T06:35:37.809Z,7.37
2023-03-20T06:38:41.204Z,6.97
2023-03-20T06:41:44.288Z,6.53
2023-03-20T06:44:48.626Z,6.50
2023-03-20T06:47:51.580Z,6.30
2023-03-20T06:50:54.662Z,6.30
2023-03-20T06:53:57.650Z,7.50
2023-03-20T06:57:00.889Z,6.70
2023-03-20T07:00:06.086Z,5.87
2023-03-20T07:03:10.084Z,6.73
2023-03-20T07:06:13.367Z,6.20
2023-03-20T07:09:17.492Z,6.47
2023-03-20T07:12:20.716Z,5.07
2023-03-20T07:15:25.464Z,7.33
2023-03-20T07:18:28.650Z,7.10
2023-03-20T07:21:31.799Z,7.73
2023-03-20T07:24:35.473Z,5.13
2023-03-20T07:27:38.776Z,5.90
2023-03-20T07:30:43.065Z,5.63
2023-03-20T07:33:46.075Z,5.47
2023-03-20T07:36:49.057Z,8.00
2023-03-20T07:39:52.008Z,5.60
2023-03-20T07:42:54.975Z,4.57
2023-03-20T07:45:59.370Z,6.13
2023-03-20T07:49:02.482Z,6.17
2023-03-20T07:52:05.480Z,5.00
2023-03-20T07:55:09.080Z,5.17
2023-03-20T07:58:12.058Z,5.30
2023-03-20T08:01:16.456Z,8.53
2023-03-20T08:04:22.533Z,7.20
2023-03-20T08:07:25.885Z,4.40
2023-03-20T08:10:29.001Z,5.07
2023-03-20T08:13:32.013Z,7.40
2023-03-20T08:16:36.605Z,5.63
2023-03-20T08:19:39.562Z,7.07
2023-03-20T08:22:42.784Z,8.80
2023-03-20T08:25:49.469Z,6.00
2023-03-20T08:28:52.862Z,5.20
2023-03-20T08:31:57.758Z,7.93
2023-03-20T08:35:00.773Z,4.60
2023-03-20T08:38:04.247Z,4.53
2023-03-20T08:41:08.159Z,6.00
2023-03-20T08:44:11.716Z,4.33
2023-03-20T08:47:16.169Z,5.23
2023-03-20T08:50:19.564Z,5.43
2023-03-20T08:53:22.601Z,7.10
2023-03-20T08:56:25.604Z,4.57
2023-03-20T08:59:28.839Z,8.27
2023-03-20T09:02:33.267Z,5.63
2023-03-20T09:05:38.434Z,5.20
2023-03-20T09:08:41.662Z,5.20
2023-03-20T09:11:44.650Z,9.03
2023-03-20T09:14:47.590Z,7.83
2023-03-20T09:17:51.921Z,4.57
2023-03-20T09:20:56.473Z,9.43
2023-03-20T09:23:59.497Z,5.57
2023-03-20T09:27:03.775Z,5.37
2023-03-20T09:30:09.065Z,5.43
2023-03-20T09:33:14.776Z,5.83
2023-03-20T09:36:18.011Z,6.20
2023-03-20T09:39:21.009Z,6.80
2023-03-20T09:42:35.904Z,7.10
2023-03-20T09:45:48.677Z,6.30
2023-03-20T09:49:00.261Z,5.43
2023-03-20T09:52:11.209Z,5.43
2023-03-20T09:55:17.372Z,7.83
2023-03-20T09:58:25.052Z,8.77
2023-03-20T10:01:34.256Z,7.37
2023-03-20T10:04:40.038Z,7.10
2023-03-20T10:07:43.113Z,10.37
2023-03-20T10:10:52.915Z,8.13
2023-03-20T10:14:07.673Z,7.53
2023-03-20T10:17:21.813Z,7.10
2023-03-20T10:20:34.432Z,12.77
2023-03-20T10:23:42.122Z,7.20
2023-03-20T10:26:45.291Z,9.60
2023-03-20T10:29:56.736Z,9.17
2023-03-20T10:33:17.094Z,7.70
2023-03-20T10:36:38.995Z,8.50
2023-03-20T10:39:53.101Z,7.83
2023-03-20T10:43:00.028Z,8.43
2023-03-20T10:46:08.016Z,5.60
2023-03-20T10:49:18.499Z,6.93
2023-03-20T10:52:27.353Z,6.47
2023-03-20T10:55:34.103Z,7.73
2023-03-20T10:58:41.331Z,9.67
2023-03-20T11:01:44.278Z,8.17
2023-03-20T11:04:47.622Z,8.63
2023-03-20T11:07:54.270Z,9.37
2023-03-20T11:11:02.085Z,5.37
2023-03-20T11:14:16.730Z,10.83
2023-03-20T11:17:19.693Z,8.17
2023-03-20T11:20:22.783Z,6.43
2023-03-20T11:23:30.222Z,8.50
2023-03-20T11:26:37.688Z,7.70
2023-03-20T11:29:45.179Z,7.43
2023-03-20T11:32:50.736Z,8.97
2023-03-20T11:35:56.247Z,5.27
2023-03-20T11:39:07.156Z,9.77
2023-03-20T11:42:24.634Z,5.30
2023-03-20T11:45:30.049Z,7.30
2023-03-20T11:48:39.234Z,8.60
2023-03-20T11:51:42.214Z,10.83
2023-03-20T11:54:51.358Z,5.73
2023-03-20T11:57:57.898Z,7.57
2023-03-20T12:01:02.909Z,7.37
2023-03-20T12:04:11.249Z,6.47
2023-03-20T12:07:17.638Z,5.90
2023-03-20T12:10:23.080Z,8.53
2023-03-20T12:13:29.846Z,6.20
2023-03-20T12:16:36.628Z,8.10
2023-03-20T12:19:41.473Z,6.00
2023-03-20T12:22:50.993Z,8.57
2023-03-20T12:26:01.021Z,6.20
2023-03-20T12:29:11.041Z,6.03
2023-03-20T12:32:18.624Z,6.53
2023-03-20T12:35:32.501Z,6.77
2023-03-20T12:38:36.242Z,6.73
2023-03-20T12:41:48.279Z,6.27
2023-03-20T12:44:57.257Z,7.80
2023-03-20T12:48:36.883Z,8.03
2023-03-20T12:51:50.438Z,5.93
2023-03-20T12:55:13.185Z,7.40
2023-03-20T12:58:27.146Z,7.93
2023-03-20T13:01:33.105Z,7.60
2023-03-20T13:05:04.253Z,7.90
2023-03-20T13:08:37.061Z,8.17
2023-03-20T13:11:48.136Z,7.93
2023-03-20T13:15:00.298Z,7.17
2023-03-20T13:18:09.947Z,7.27
2023-03-20T13:21:18.319Z,7.13
2023-03-20T13:24:32.027Z,4.03
2023-03-20T13:27:41.847Z,6.20
2023-03-20T13:30:53.978Z,5.27
2023-03-20T13:34:02.684Z,5.97
2023-03-20T13:37:24.115Z,5.20
2023-03-20T13:40:29.861Z,6.70
2023-03-20T13:43:35.935Z,4.97
2023-03-20T13:46:44.164Z,4.07
2023-03-20T13:49:55.778Z,7.07
2023-03-20T13:53:04.918Z,4.80
2023-03-20T13:56:15.403Z,5.33
2023-03-20T13:59:41.229Z,7.33
2023-03-20T14:03:15.021Z,5.83
2023-03-20T14:06:19.727Z,6.57
2023-03-20T14:09:27.606Z,6.77
2023-03-20T14:12:33.833Z,5.33
2023-03-20T14:15:39.329Z,4.67
2023-03-20T14:18:45.437Z,5.87
2023-03-20T14:21:49.275Z,6.87
2023-03-20T14:25:00.688Z,5.90
2023-03-20T14:28:10.845Z,5.80
2023-03-20T14:31:23.271Z,6.70
2023-03-20T14:34:27.591Z,7.97
2023-03-20T14:37:37.681Z,6.80
2023-03-20T14:40:49.922Z,6.63
2023-03-20T14:44:09.391Z,5.13
2023-03-20T14:47:26.793Z,6.60
2023-03-20T14:50:35.346Z,7.37
2023-03-20T14:53:41.490Z,5.20
2023-03-20T14:56:44.567Z,5.07
2023-03-20T14:59:49.813Z,4.17
2023-03-20T15:02:54.847Z,5.23
2023-03-20T15:06:02.558Z,4.53
2023-03-20T15:09:09.251Z,4.63
2023-03-20T15:12:15.032Z,5.33
2023-03-20T15:15:26.546Z,6.43
2023-03-20T15:18:30.110Z,6.30
2023-03-20T15:21:37.285Z,5.93
2023-03-20T15:24:40.272Z,9.23
2023-03-20T15:27:44.114Z,6.20
2023-03-20T15:30:49.004Z,6.87
2023-03-20T15:33:52.440Z,5.20
2023-03-20T15:36:59.654Z,5.47
2023-03-20T15:40:13.388Z,5.17
2023-03-20T15:43:20.481Z,6.17
2023-03-20T15:46:27.517Z,5.83
2023-03-20T15:49:33.317Z,4.90
2023-03-20T15:52:42.746Z,7.43
2023-03-20T15:55:50.628Z,7.53
2023-03-20T15:58:55.259Z,8.23
2023-03-20T16:02:00.384Z,8.30
2023-03-20T16:05:03.702Z,8.67
2023-03-20T16:08:23.561Z,8.87
2023-03-20T16:11:26.570Z,6.87
2023-03-20T16:14:32.016Z,8.40
2023-03-20T16:17:36.111Z,8.47
2023-03-20T16:20:45.060Z,6.73
2023-03-20T16:23:52.842Z,7.60
2023-03-20T16:26:56.803Z,5.63
2023-03-20T16:30:00.233Z,9.17
2023-03-20T16:33:07.865Z,8.33
2023-03-20T16:36:18.791Z,6.03
2023-03-20T16:39:25.531Z,8.77
2023-03-20T16:42:30.586Z,5.90
2023-03-20T16:45:36.007Z,8.33
2023-03-20T16:48:39.213Z,9.17
2023-03-20T16:51:44.562Z,7.70
2023-03-20T16:54:48.848Z,6.97
2023-03-20T16:57:55.320Z,8.37
2023-03-20T17:01:01.158Z,8.30
2023-03-20T17:04:15.501Z,10.70
2023-03-20T17:07:23.850Z,8.87
2023-03-20T17:10:30.076Z,8.60
2023-03-20T17:13:33.137Z,9.17
2023-03-20T17:16:36.680Z,12.63
2023-03-20T17:19:39.696Z,9.00
2023-03-20T17:22:42.669Z,9.07
2023-03-20T17:25:48.998Z,5.67
2023-03-20T17:28:52.470Z,9.80
2023-03-20T17:31:55.544Z,9.57
2023-03-20T17:34:58.547Z,7.77
2023-03-20T17:38:01.514Z,8.00
2023-03-20T17:41:06.484Z,9.03
2023-03-20T17:44:10.528Z,8.20
2023-03-20T17:47:16.465Z,10.67
2023-03-20T17:50:20.330Z,7.27
2023-03-20T17:53:24.937Z,11.17
2023-03-20T17:56:30.231Z,9.17
2023-03-20T17:59:33.374Z,10.73
2023-03-20T18:02:36.618Z,10.47
2023-03-20T18:05:40.078Z,9.00
2023-03-20T18:08:43.041Z,9.67
2023-03-20T18:11:47.439Z,11.17
2023-03-20T18:14:50.372Z,10.23
2023-03-20T18:17:53.418Z,10.50
2023-03-20T18:20:57.448Z,10.47
2023-03-20T18:24:00.420Z,8.80
2023-03-20T18:27:04.836Z,7.67
2023-03-20T18:30:15.549Z,9.87
2023-03-20T18:33:19.362Z,9.30
2023-03-20T18:36:24.805Z,8.00
2023-03-20T18:39:27.789Z,11.90
2023-03-20T18:42:32.089Z,8.97
2023-03-20T18:45:35.043Z,6.50
2023-03-20T18:48:38.041Z,10.47
2023-03-20T18:51:40.983Z,9.63
2023-03-20T18:54:43.955Z,11.53
2023-03-20T18:57:48.563Z,10.83
2023-03-20T19:00:53.514Z,10.90
2023-03-20T19:03:56.504Z,10.63
2023-03-20T19:06:59.496Z,9.90
2023-03-20T19:10:02.640Z,12.03
2023-03-20T19:13:08.444Z,11.23
2023-03-20T19:16:24.410Z,12.00
2023-03-20T19:19:29.585Z,11.00
2023-03-20T19:22:32.586Z,11.37
2023-03-20T19:25:36.760Z,10.23
2023-03-20T19:28:41.761Z,11.17
2023-03-20T19:31:44.839Z,8.83
2023-03-20T19:35:35.211Z,12.57
2023-03-20T19:38:14.770Z,10.27
2023-03-20T19:41:19.849Z,10.40
2023-03-20T19:44:24.465Z,15.43
2023-03-20T19:47:27.405Z,13.63
2023-03-20T19:50:33.827Z,11.10
2023-03-20T19:53:36.727Z,9.43
2023-03-20T19:56:40.447Z,11.23
2023-03-20T19:59:44.798Z,9.63
2023-03-20T20:02:48.775Z,9.13
2023-03-20T20:05:53.932Z,15.07
2023-03-20T20:08:56.869Z,9.80
2023-03-20T20:11:59.788Z,11.37
2023-03-20T20:15:04.159Z,13.30
2023-03-20T20:18:07.499Z,9.67
2023-03-20T20:22:06.242Z,9.73
2023-03-20T20:24:34.702Z,8.80
2023-03-20T20:27:37.842Z,9.60
2023-03-20T20:30:42.213Z,10.20
2023-03-20T20:34:01.189Z,8.83
2023-03-20T20:40:31.989Z,8.73
2023-03-20T20:44:11.443Z,8.70
2023-03-20T20:46:59.625Z,11.23
2023-03-20T20:50:03.922Z,8.70
2023-03-20T20:53:08.149Z,12.23
2023-03-20T20:56:11.208Z,9.83
2023-03-20T20:59:14.180Z,8.83
2023-03-20T21:02:18.535Z,13.80
2023-03-20T21:05:22.337Z,11.17
2023-03-20T21:08:25.327Z,8.63
2023-03-20T21:11:28.708Z,8.87
2023-03-20T21:14:31.895Z,10.50
2023-03-20T21:17:36.254Z,9.80
2023-03-20T21:20:39.329Z,12.57
2023-03-20T21:23:42.972Z,8.87
2023-03-20T21:26:46.295Z,11.67
2023-03-20T21:29:50.537Z,9.40
2023-03-20T21:32:54.870Z,9.03
2023-03-20T21:35:57.955Z,9.33
2023-03-20T21:39:08.409Z,10.77
2023-03-20T21:42:12.729Z,11.77
2023-03-20T21:49:28.789Z,9.20
2023-03-20T22:02:21.425Z,9.57
2023-03-20T22:06:02.438Z,11.73
2023-03-20T22:30:01.594Z,13.47
2023-03-20T22:37:19.381Z,17.40
2023-03-20T22:40:29.186Z,20.07
2023-03-20T22:43:28.045Z,18.70
2023-03-20T22:46:43.926Z,16.40
2023-03-20T22:49:40.207Z,14.73
2023-03-20T22:52:49.091Z,18.30
2023-03-20T22:55:54.134Z,14.80
2023-03-20T22:58:57.196Z,14.07
2023-03-20T23:02:00.329Z,16.77
2023-03-20T23:05:03.300Z,14.27
2023-03-20T23:08:07.851Z,13.37
2023-03-20T23:11:12.548Z,15.07
2023-03-20T23:14:21.531Z,12.90
2023-03-20T23:17:26.892Z,15.67
2023-03-20T23:20:29.938Z,16.17
2023-03-20T23:23:33.335Z,15.83
2023-03-20T23:26:37.640Z,19.10
2023-03-20T23:29:40.868Z,16.83
2023-03-20T23:32:44.048Z,19.67
2023-03-20T23:35:48.387Z,20.43
2023-03-20T23:38:51.613Z,18.00
2023-03-20T23:42:12.003Z,19.37
2023-03-20T23:48:42.496Z,19.93
2023-03-20T23:51:45.572Z,21.37
2023-03-20T23:54:48.525Z,20.63
2023-03-20T23:57:52.850Z,22.27
